Time;durP1;ratioP1;P1;durP2;ratioP2;P2;SDS_P1;SDS_P2;PMS_P1;PMS_P2;Temp;Humidity;BMP_temperature;BMP_pressure;BME280_temperature;BME280_humidity;BME280_pressure;Samples;Min_cycle;Max_cycle;Signal;HPM_P1;HPM_P2
2023/08/13 00:02:07;;;;;;;2.90;2.70;;;21.30;99.90;;;;;;5040471;28;20246;-57
2023/08/13 00:04:32;;;;;;;8.27;5.40;;;21.20;99.90;;;;;;5033109;28;20191;-61
2023/08/13 00:06:59;;;;;;;10.73;5.80;;;21.10;99.90;;;;;;5034792;28;20195;-60
2023/08/13 00:09:25;;;;;;;3.87;3.13;;;21.10;99.90;;;;;;5032021;28;20711;-59
2023/08/13 00:11:51;;;;;;;4.60;3.60;;;21.00;99.90;;;;;;5016672;28;20278;-57
2023/08/13 00:14:17;;;;;;;3.00;2.80;;;20.90;99.90;;;;;;5038319;28;20231;-57
2023/08/13 00:16:44;;;;;;;3.97;3.60;;;20.90;99.90;;;;;;5042241;28;20205;-57
2023/08/13 00:19:09;;;;;;;4.83;3.33;;;21.00;99.90;;;;;;5035515;28;20234;-57
2023/08/13 00:21:35;;;;;;;2.97;2.77;;;21.00;99.90;;;;;;5034855;28;20193;-57
2023/08/13 00:24:01;;;;;;;3.70;3.40;;;21.00;99.90;;;;;;5025344;28;20601;-56
2023/08/13 00:26:26;;;;;;;3.97;3.67;;;20.90;99.90;;;;;;5043193;28;20708;-56
2023/08/13 00:28:52;;;;;;;5.00;2.90;;;20.80;99.90;;;;;;5053440;28;20202;-58
2023/08/13 00:31:17;;;;;;;3.07;2.87;;;20.80;99.90;;;;;;5060186;28;20197;-56
2023/08/13 00:33:43;;;;;;;3.47;3.17;;;20.80;99.90;;;;;;5061181;28;20248;-56
2023/08/13 00:36:09;;;;;;;3.43;3.23;;;20.70;99.90;;;;;;5055972;28;20200;-59
2023/08/13 00:38:34;;;;;;;4.00;3.60;;;20.80;99.90;;;;;;5059777;28;20210;-55
2023/08/13 00:41:00;;;;;;;4.00;3.20;;;20.80;99.90;;;;;;5037032;28;20190;-59
2023/08/13 00:43:25;;;;;;;3.80;3.37;;;20.80;99.90;;;;;;5060673;28;20562;-61
2023/08/13 00:45:51;;;;;;;5.13;3.23;;;20.70;99.90;;;;;;5050166;28;20237;-54
2023/08/13 00:48:17;;;;;;;3.10;2.90;;;20.70;99.90;;;;;;5042743;28;20225;-55
2023/08/13 00:50:46;;;;;;;3.33;3.03;;;20.60;99.90;;;;;;5045383;28;20199;-55
2023/08/13 00:53:11;;;;;;;3.50;3.20;;;20.50;99.90;;;;;;5048782;28;20788;-65
2023/08/13 00:55:37;;;;;;;3.30;3.10;;;20.50;99.90;;;;;;5047506;28;20194;-62
2023/08/13 00:58:03;;;;;;;3.67;3.43;;;20.60;99.90;;;;;;5043871;28;20961;-61
2023/08/13 01:00:30;;;;;;;4.20;3.63;;;20.60;99.90;;;;;;5020922;28;20221;-61
2023/08/13 01:02:56;;;;;;;5.13;3.60;;;20.60;99.90;;;;;;5024353;28;20312;-55
2023/08/13 01:05:32;;;;;;;3.60;3.40;;;20.70;99.90;;;;;;5042607;28;20285;-55
2023/08/13 01:08:39;;;;;;;3.90;3.60;;;20.80;99.90;;;;;;5037696;28;20183;-55
2023/08/13 01:11:19;;;;;;;3.93;3.63;;;20.80;99.90;;;;;;4985945;28;20210;-55
2023/08/13 01:13:53;;;;;;;3.97;3.60;;;20.80;99.90;;;;;;5039703;28;21134;-55
2023/08/13 01:16:20;;;;;;;4.23;3.90;;;20.70;99.90;;;;;;5028190;28;20193;-56
2023/08/13 01:18:46;;;;;;;3.50;3.30;;;20.70;99.90;;;;;;5042677;28;20222;-55
2023/08/13 01:21:12;;;;;;;6.10;4.10;;;20.60;99.90;;;;;;5023755;28;20206;-55
2023/08/13 01:23:37;;;;;;;3.73;3.43;;;20.60;99.90;;;;;;5029428;28;20585;-55
2023/08/13 01:26:15;;;;;;;4.30;3.90;;;20.50;99.90;;;;;;5041294;28;20250;-56
2023/08/13 01:28:46;;;;;;;4.27;3.93;;;20.40;99.90;;;;;;5024597;28;20305;-56
2023/08/13 01:31:18;;;;;;;4.20;3.90;;;20.50;99.90;;;;;;5044989;28;20197;-55
2023/08/13 01:33:47;;;;;;;4.77;4.10;;;20.60;99.90;;;;;;5028360;28;20255;-56
2023/08/13 01:36:16;;;;;;;4.97;4.57;;;20.70;99.90;;;;;;5051503;28;20691;-55
2023/08/13 01:38:43;;;;;;;4.37;3.80;;;20.70;99.90;;;;;;5051559;28;20678;-56
2023/08/13 01:41:08;;;;;;;4.13;3.80;;;20.60;99.90;;;;;;5026321;28;20197;-55
2023/08/13 01:43:34;;;;;;;4.13;3.70;;;20.60;99.90;;;;;;5046070;28;20715;-55
2023/08/13 01:46:01;;;;;;;4.33;3.97;;;20.60;99.90;;;;;;5049057;28;20216;-55
2023/08/13 01:48:27;;;;;;;3.57;3.27;;;20.60;99.90;;;;;;5052597;28;20189;-54
2023/08/13 01:50:53;;;;;;;4.97;4.40;;;20.70;99.90;;;;;;5024792;28;20216;-56
2023/08/13 01:53:18;;;;;;;4.23;3.83;;;20.50;99.90;;;;;;5045746;28;20203;-56
2023/08/13 01:55:44;;;;;;;4.40;4.10;;;20.50;99.90;;;;;;5049300;28;20241;-56
2023/08/13 01:58:10;;;;;;;5.47;4.10;;;20.50;99.90;;;;;;5031232;28;20616;-56
2023/08/13 02:00:36;;;;;;;7.67;5.13;;;20.30;99.90;;;;;;5033157;28;20202;-56
2023/08/13 02:03:01;;;;;;;3.90;3.60;;;20.20;99.90;;;;;;5040738;28;20922;-56
2023/08/13 02:05:27;;;;;;;4.20;3.90;;;20.20;99.90;;;;;;5042208;28;21158;-56
2023/08/13 02:07:53;;;;;;;4.23;3.93;;;20.20;99.90;;;;;;5027227;28;20209;-55
2023/08/13 02:10:18;;;;;;;4.17;3.90;;;20.30;99.90;;;;;;5024080;28;20729;-56
2023/08/13 02:12:43;;;;;;;12.90;6.43;;;20.30;99.90;;;;;;5044744;28;20190;-56
2023/08/13 02:15:09;;;;;;;11.70;5.03;;;20.20;99.90;;;;;;5049167;28;20828;-56
2023/08/13 02:17:35;;;;;;;10.13;5.40;;;20.20;99.90;;;;;;5031192;28;20917;-56
2023/08/13 02:20:01;;;;;;;4.97;3.87;;;20.20;99.90;;;;;;5046217;28;20266;-56
2023/08/13 02:22:26;;;;;;;4.30;3.90;;;20.20;99.90;;;;;;5046693;28;20252;-55
2023/08/13 02:24:52;;;;;;;4.20;3.90;;;20.20;99.90;;;;;;5048299;28;20257;-60
2023/08/13 02:27:17;;;;;;;5.33;4.53;;;20.20;99.90;;;;;;5058264;28;20209;-56
2023/08/13 02:29:43;;;;;;;4.00;3.53;;;20.10;99.90;;;;;;5044573;28;20212;-56
2023/08/13 02:32:09;;;;;;;3.93;3.63;;;20.00;99.90;;;;;;5048817;28;20232;-56
2023/08/13 02:34:45;;;;;;;4.73;3.80;;;20.10;99.90;;;;;;5045977;28;20278;-57
2023/08/13 02:37:11;;;;;;;5.83;3.50;;;20.10;99.90;;;;;;5041911;28;20220;-60
2023/08/13 02:39:37;;;;;;;4.10;3.70;;;20.00;99.90;;;;;;5042114;28;20675;-56
2023/08/13 02:42:02;;;;;;;5.10;3.80;;;20.00;99.90;;;;;;5051765;28;20695;-56
2023/08/13 02:44:28;;;;;;;4.00;3.60;;;19.90;99.90;;;;;;5046812;28;20192;-56
2023/08/13 02:46:53;;;;;;;3.93;3.53;;;19.90;99.90;;;;;;5026253;28;20196;-57
2023/08/13 02:49:19;;;;;;;5.23;4.00;;;19.90;99.90;;;;;;5051687;28;20197;-56
2023/08/13 02:51:44;;;;;;;4.63;4.33;;;19.90;99.90;;;;;;5046540;28;20191;-56
2023/08/13 02:54:10;;;;;;;6.80;3.90;;;20.00;99.90;;;;;;5039166;28;20695;-57
2023/08/13 02:56:36;;;;;;;4.17;3.87;;;19.90;99.90;;;;;;5050888;28;20191;-56
2023/08/13 02:59:01;;;;;;;3.43;3.23;;;20.00;99.90;;;;;;5050098;28;20328;-56
2023/08/13 03:01:27;;;;;;;4.77;4.33;;;20.00;99.90;;;;;;5061555;28;20784;-57
2023/08/13 03:03:53;;;;;;;5.00;4.03;;;20.00;99.90;;;;;;5055036;28;20214;-56
2023/08/13 03:06:20;;;;;;;4.03;3.73;;;19.90;99.90;;;;;;5054364;28;20297;-56
2023/08/13 03:08:45;;;;;;;5.10;3.70;;;20.00;99.90;;;;;;5039834;28;20205;-56
2023/08/13 03:11:11;;;;;;;4.27;3.70;;;20.00;99.90;;;;;;5049740;28;20214;-56
2023/08/13 03:13:36;;;;;;;3.60;3.30;;;19.90;99.90;;;;;;5053237;28;20295;-56
2023/08/13 03:16:02;;;;;;;3.80;3.50;;;20.00;99.90;;;;;;5051116;28;20203;-57
2023/08/13 03:18:28;;;;;;;4.70;3.63;;;19.90;99.90;;;;;;5055418;28;20219;-56
2023/08/13 03:20:53;;;;;;;4.70;3.73;;;19.90;99.90;;;;;;5062752;28;20193;-56
2023/08/13 03:23:18;;;;;;;4.10;3.83;;;19.90;99.90;;;;;;5047346;28;20222;-57
2023/08/13 03:25:44;;;;;;;5.50;4.13;;;19.90;99.90;;;;;;5055092;28;20224;-56
2023/08/13 03:28:09;;;;;;;4.40;4.00;;;19.90;99.90;;;;;;5054981;28;20672;-56
2023/08/13 03:30:35;;;;;;;3.50;3.20;;;20.00;99.90;;;;;;5052479;28;20509;-55
2023/08/13 03:33:00;;;;;;;5.00;4.20;;;20.00;99.90;;;;;;5046764;28;20199;-56
2023/08/13 03:35:26;;;;;;;4.97;4.10;;;19.90;99.90;;;;;;5053688;28;20196;-55
2023/08/13 03:37:51;;;;;;;5.77;4.50;;;20.00;99.90;;;;;;5043772;28;21039;-56
2023/08/13 03:40:17;;;;;;;5.63;4.20;;;20.00;99.90;;;;;;5061131;28;20202;-55
2023/08/13 03:42:42;;;;;;;4.73;4.33;;;19.90;99.90;;;;;;5046828;28;20230;-55
2023/08/13 03:45:08;;;;;;;5.00;4.40;;;19.80;99.90;;;;;;5055673;28;20377;-55
2023/08/13 03:47:34;;;;;;;4.70;4.30;;;19.70;99.90;;;;;;5043598;28;20544;-56
2023/08/13 03:50:00;;;;;;;4.43;4.03;;;19.60;99.90;;;;;;5050534;28;20727;-56
2023/08/13 03:52:25;;;;;;;9.10;4.90;;;19.60;99.90;;;;;;5049614;28;20244;-56
2023/08/13 03:54:51;;;;;;;4.50;4.20;;;19.50;99.90;;;;;;5043181;28;20192;-56
2023/08/13 03:57:16;;;;;;;4.97;4.50;;;19.60;99.90;;;;;;5051561;28;20672;-56
2023/08/13 03:59:42;;;;;;;5.03;3.93;;;19.50;99.90;;;;;;5050008;28;20274;-56
2023/08/13 04:02:07;;;;;;;5.20;4.70;;;19.50;99.90;;;;;;5047855;28;20220;-56
2023/08/13 04:04:33;;;;;;;5.57;4.17;;;19.40;99.90;;;;;;5056938;28;20239;-55
2023/08/13 04:06:58;;;;;;;4.17;3.87;;;19.30;99.90;;;;;;5048786;28;20210;-54
2023/08/13 04:09:24;;;;;;;9.13;4.50;;;19.20;99.90;;;;;;5053078;28;20193;-55
2023/08/13 04:11:49;;;;;;;5.00;4.40;;;19.30;99.90;;;;;;5060864;28;20206;-54
2023/08/13 04:14:15;;;;;;;4.03;3.73;;;19.40;99.90;;;;;;5052125;28;21126;-54
2023/08/13 04:16:40;;;;;;;4.20;3.83;;;19.40;99.90;;;;;;5047787;28;20271;-55
2023/08/13 04:19:06;;;;;;;4.80;4.30;;;19.50;99.90;;;;;;5054294;28;20627;-55
2023/08/13 04:21:32;;;;;;;5.10;4.60;;;19.50;99.90;;;;;;5048285;28;20195;-55
2023/08/13 04:23:57;;;;;;;4.23;3.93;;;19.40;99.90;;;;;;5053258;28;20708;-60
2023/08/13 04:26:24;;;;;;;4.40;4.00;;;19.40;99.90;;;;;;5056789;28;20734;-59
2023/08/13 04:28:49;;;;;;;4.60;4.20;;;19.30;99.90;;;;;;5042967;28;20203;-57
2023/08/13 04:31:16;;;;;;;12.43;4.60;;;19.30;99.90;;;;;;5044801;28;20375;-60
2023/08/13 04:33:42;;;;;;;4.87;4.20;;;19.40;99.90;;;;;;5046416;28;20208;-54
2023/08/13 04:36:07;;;;;;;3.97;3.57;;;19.30;99.90;;;;;;5054317;28;20202;-53
2023/08/13 04:38:33;;;;;;;3.57;3.37;;;19.20;99.90;;;;;;5056689;28;20399;-54
2023/08/13 04:41:00;;;;;;;5.63;3.93;;;19.20;99.90;;;;;;5032372;28;20225;-55
2023/08/13 04:43:25;;;;;;;5.37;3.63;;;19.10;99.90;;;;;;5052925;28;20201;-55
2023/08/13 04:45:51;;;;;;;7.57;3.73;;;19.00;99.90;;;;;;5043698;28;20205;-55
2023/08/13 04:48:18;;;;;;;3.93;3.53;;;19.00;99.90;;;;;;5046003;28;20232;-55
2023/08/13 04:50:43;;;;;;;4.10;3.67;;;19.00;99.90;;;;;;5054822;28;20610;-55
2023/08/13 04:53:09;;;;;;;4.57;4.17;;;19.10;99.90;;;;;;5049687;28;20749;-55
2023/08/13 04:55:34;;;;;;;5.40;3.90;;;19.10;99.90;;;;;;5047713;28;20202;-54
2023/08/13 04:58:03;;;;;;;4.47;3.27;;;19.30;99.90;;;;;;5053090;28;20769;-54
2023/08/13 05:00:28;;;;;;;4.10;3.70;;;19.30;99.90;;;;;;5051022;28;20196;-55
2023/08/13 05:02:54;;;;;;;8.40;3.50;;;19.30;99.90;;;;;;5036628;28;21103;-55
2023/08/13 05:05:19;;;;;;;3.60;3.17;;;19.40;99.90;;;;;;5055144;28;20271;-55
2023/08/13 05:07:45;;;;;;;3.73;3.13;;;19.40;99.90;;;;;;5049939;28;20194;-56
2023/08/13 05:10:10;;;;;;;4.43;3.40;;;19.50;99.90;;;;;;5052202;28;20194;-55
2023/08/13 05:12:36;;;;;;;5.43;3.63;;;19.60;99.90;;;;;;5053741;28;20196;-55
2023/08/13 05:15:03;;;;;;;5.03;3.00;;;19.70;99.90;;;;;;5057947;28;20831;-55
2023/08/13 05:17:28;;;;;;;8.27;3.23;;;19.60;99.90;;;;;;5034123;28;20196;-55
2023/08/13 05:19:54;;;;;;;5.87;3.37;;;19.60;99.90;;;;;;5054435;28;20207;-55
2023/08/13 05:22:19;;;;;;;3.83;3.23;;;19.50;99.90;;;;;;5044859;28;20228;-55
2023/08/13 05:24:47;;;;;;;3.23;3.00;;;19.60;99.90;;;;;;5055137;28;20217;-55
2023/08/13 05:27:12;;;;;;;3.97;3.50;;;19.80;99.90;;;;;;5055489;28;20172;-55
2023/08/13 05:29:38;;;;;;;3.83;3.43;;;19.90;99.90;;;;;;5047819;28;20249;-55
2023/08/13 05:32:04;;;;;;;7.10;2.93;;;19.90;99.90;;;;;;5022871;28;20203;-55
2023/08/13 05:34:30;;;;;;;4.17;2.83;;;19.80;99.90;;;;;;5054207;28;20172;-55
2023/08/13 05:36:55;;;;;;;2.97;2.63;;;19.70;99.90;;;;;;5041807;28;20205;-55
2023/08/13 05:39:22;;;;;;;5.70;2.53;;;19.80;99.90;;;;;;5041484;28;20211;-54
2023/08/13 05:41:47;;;;;;;4.10;2.30;;;19.80;99.90;;;;;;5057375;28;20186;-55
2023/08/13 05:44:13;;;;;;;3.73;2.80;;;19.90;99.90;;;;;;5043377;28;20500;-55
2023/08/13 05:46:38;;;;;;;4.07;2.77;;;19.90;99.90;;;;;;5050169;28;20283;-55
2023/08/13 05:49:04;;;;;;;4.80;3.00;;;20.00;99.90;;;;;;5033081;28;20657;-55
2023/08/13 05:51:29;;;;;;;3.80;2.53;;;20.00;99.90;;;;;;5028447;28;20189;-55
2023/08/13 05:53:55;;;;;;;2.73;2.43;;;19.90;99.90;;;;;;5051603;28;20263;-56
2023/08/13 05:56:20;;;;;;;3.20;2.53;;;20.00;99.90;;;;;;5046421;28;20680;-55
2023/08/13 05:58:46;;;;;;;5.77;2.70;;;20.00;99.90;;;;;;5050255;28;20283;-56
2023/08/13 06:01:11;;;;;;;3.63;2.43;;;20.10;99.90;;;;;;5029830;28;20205;-62
2023/08/13 06:03:36;;;;;;;2.77;2.20;;;20.10;99.90;;;;;;5035886;28;20300;-57
2023/08/13 06:06:02;;;;;;;7.47;2.90;;;20.20;99.90;;;;;;5044392;28;20710;-58
2023/08/13 06:08:28;;;;;;;4.00;2.60;;;20.30;99.90;;;;;;5026272;28;20198;-57
2023/08/13 06:10:53;;;;;;;5.37;2.37;;;20.30;99.90;;;;;;5054265;28;20569;-57
2023/08/13 06:13:19;;;;;;;4.23;2.40;;;20.30;99.90;;;;;;5049245;28;20202;-57
2023/08/13 06:15:44;;;;;;;4.67;2.23;;;20.30;99.90;;;;;;5044514;28;20277;-56
2023/08/13 06:18:10;;;;;;;3.77;1.90;;;20.30;99.90;;;;;;5050486;28;20224;-57
2023/08/13 06:20:35;;;;;;;5.43;2.10;;;20.40;99.90;;;;;;5046901;28;20654;-56
2023/08/13 06:23:01;;;;;;;2.47;2.17;;;20.40;99.90;;;;;;5029824;28;20220;-56
2023/08/13 06:25:26;;;;;;;3.53;2.40;;;20.40;99.90;;;;;;5050451;28;20358;-55
2023/08/13 06:27:52;;;;;;;3.10;2.10;;;20.40;99.90;;;;;;5051746;28;20204;-55
2023/08/13 06:30:17;;;;;;;4.10;2.70;;;20.30;99.90;;;;;;5039263;28;20688;-56
2023/08/13 06:32:43;;;;;;;5.23;2.87;;;20.30;99.90;;;;;;5027712;28;20209;-56
2023/08/13 06:35:08;;;;;;;3.00;2.40;;;20.50;99.90;;;;;;5053271;28;20870;-56
2023/08/13 06:37:34;;;;;;;4.17;2.47;;;20.60;99.90;;;;;;5058208;28;20206;-56
2023/08/13 06:40:00;;;;;;;4.03;2.37;;;20.70;99.90;;;;;;5058993;28;20208;-55
2023/08/13 06:42:25;;;;;;;5.03;2.43;;;20.80;99.90;;;;;;5049378;28;20222;-56
2023/08/13 06:44:50;;;;;;;4.63;2.07;;;21.00;99.90;;;;;;5051911;28;20221;-55
2023/08/13 06:47:16;;;;;;;3.17;2.37;;;21.10;99.90;;;;;;5060768;28;20208;-57
2023/08/13 06:49:42;;;;;;;5.00;1.83;;;21.20;99.90;;;;;;5056876;28;20580;-57
2023/08/13 06:52:07;;;;;;;4.20;2.30;;;21.30;99.90;;;;;;5053436;28;20750;-57
2023/08/13 06:54:33;;;;;;;3.37;2.43;;;21.30;99.90;;;;;;5057130;28;20672;-56
2023/08/13 06:56:59;;;;;;;4.33;2.80;;;21.40;99.90;;;;;;5048440;28;20318;-58
2023/08/13 06:59:24;;;;;;;4.03;2.47;;;21.40;99.90;;;;;;5051308;28;21018;-55
2023/08/13 07:01:50;;;;;;;2.47;2.13;;;21.40;99.90;;;;;;5026073;28;20194;-55
2023/08/13 07:04:16;;;;;;;2.87;2.47;;;21.50;99.90;;;;;;5053579;28;20339;-56
2023/08/13 07:06:41;;;;;;;3.23;2.00;;;21.50;99.90;;;;;;5051921;28;20698;-56
2023/08/13 07:09:07;;;;;;;3.40;1.93;;;21.50;99.90;;;;;;5053500;28;20205;-54
2023/08/13 07:11:32;;;;;;;5.03;2.37;;;21.50;99.90;;;;;;5056484;28;20865;-55
2023/08/13 07:13:58;;;;;;;6.77;3.57;;;21.50;99.90;;;;;;5043367;28;20673;-56
2023/08/13 07:16:24;;;;;;;8.63;2.93;;;21.50;99.90;;;;;;5046222;28;20205;-57
2023/08/13 07:18:49;;;;;;;4.53;2.13;;;21.50;99.90;;;;;;5055178;28;20218;-59
2023/08/13 07:21:15;;;;;;;7.43;2.30;;;21.50;99.90;;;;;;5054704;28;20209;-57
2023/08/13 07:23:40;;;;;;;5.83;2.70;;;21.60;99.90;;;;;;5052567;28;20228;-57
2023/08/13 07:26:06;;;;;;;6.27;2.40;;;21.60;99.90;;;;;;5049988;28;20254;-55
2023/08/13 07:28:35;;;;;;;4.10;2.10;;;21.70;99.90;;;;;;5035711;28;20290;-55
2023/08/13 07:31:04;;;;;;;3.97;1.93;;;21.70;99.90;;;;;;5061922;28;20583;-56
2023/08/13 07:33:31;;;;;;;2.70;1.97;;;21.80;99.90;;;;;;5059966;28;20197;-55
2023/08/13 07:35:58;;;;;;;5.27;2.00;;;21.90;99.90;;;;;;5058216;28;20703;-54
2023/08/13 07:38:23;;;;;;;6.13;2.53;;;22.00;99.90;;;;;;5048073;28;20202;-55
2023/08/13 07:40:49;;;;;;;4.13;2.10;;;22.00;99.90;;;;;;5053377;28;20209;-55
2023/08/13 07:43:14;;;;;;;4.00;2.50;;;22.20;99.90;;;;;;5054232;28;20214;-54
2023/08/13 07:45:40;;;;;;;6.47;2.13;;;22.10;99.90;;;;;;5043863;28;20247;-56
2023/08/13 07:48:05;;;;;;;3.50;2.03;;;22.30;99.90;;;;;;5062083;28;20190;-55
2023/08/13 07:50:31;;;;;;;4.50;2.40;;;22.10;99.90;;;;;;5061663;28;20214;-55
2023/08/13 07:52:57;;;;;;;7.00;1.97;;;22.20;99.90;;;;;;5060193;28;20252;-54
2023/08/13 07:55:22;;;;;;;6.38;2.53;;;22.30;99.90;;;;;;5061238;28;20198;-55
2023/08/13 07:57:48;;;;;;;4.30;1.93;;;22.40;99.90;;;;;;5037749;28;20211;-57
2023/08/13 08:00:16;;;;;;;5.97;2.57;;;22.50;99.90;;;;;;5050641;28;20227;-57
2023/08/13 08:02:42;;;;;;;4.07;2.10;;;22.40;99.90;;;;;;5055039;28;20593;-60
2023/08/13 08:05:08;;;;;;;7.93;2.60;;;22.60;99.90;;;;;;5054939;28;20186;-57
2023/08/13 08:07:34;;;;;;;3.03;1.90;;;22.60;99.90;;;;;;5060762;28;20222;-56
2023/08/13 08:10:00;;;;;;;3.40;2.03;;;22.50;99.90;;;;;;5055193;28;20282;-58
2023/08/13 08:12:26;;;;;;;4.13;1.80;;;22.60;99.90;;;;;;5060949;28;20197;-54
2023/08/13 08:14:51;;;;;;;4.10;1.90;;;22.40;99.90;;;;;;5051907;28;21074;-53
2023/08/13 08:17:17;;;;;;;7.00;2.43;;;22.40;99.90;;;;;;5059204;28;20237;-53
2023/08/13 08:19:42;;;;;;;4.40;2.17;;;22.60;99.90;;;;;;5060754;28;20213;-54
2023/08/13 08:22:08;;;;;;;4.60;2.22;;;22.70;99.90;;;;;;5035147;28;20758;-54
2023/08/13 08:24:33;;;;;;;4.93;2.43;;;22.70;99.90;;;;;;5033286;28;20316;-58
2023/08/13 08:26:59;;;;;;;3.77;2.53;;;22.80;99.90;;;;;;5062301;28;20201;-55
2023/08/13 08:29:24;;;;;;;4.40;2.20;;;22.80;99.90;;;;;;5058407;28;20909;-54
2023/08/13 08:31:51;;;;;;;3.63;2.00;;;22.60;99.90;;;;;;5050483;28;20572;-57
2023/08/13 08:34:17;;;;;;;5.03;2.10;;;22.60;99.90;;;;;;5053900;28;20892;-61
2023/08/13 08:36:42;;;;;;;5.53;2.03;;;22.90;99.90;;;;;;5055036;28;20278;-58
2023/08/13 08:39:08;;;;;;;4.83;2.27;;;22.90;99.90;;;;;;5036645;28;20198;-61
2023/08/13 08:41:36;;;;;;;3.97;2.13;;;23.00;99.90;;;;;;5047976;28;20230;-57
2023/08/13 08:44:02;;;;;;;5.00;2.50;;;23.00;99.90;;;;;;5041074;28;20214;-57
2023/08/13 08:46:27;;;;;;;4.00;2.33;;;23.10;99.90;;;;;;5047576;28;20672;-58
2023/08/13 08:48:53;;;;;;;2.50;1.67;;;23.10;99.90;;;;;;5046857;28;20190;-58
2023/08/13 08:51:21;;;;;;;4.97;2.47;;;23.20;99.90;;;;;;5050152;28;20233;-58
2023/08/13 08:53:49;;;;;;;2.65;1.98;;;23.30;99.90;;;;;;5051480;28;20194;-58
2023/08/13 08:56:14;;;;;;;8.37;2.13;;;23.30;99.90;;;;;;5049088;28;20191;-58
2023/08/13 08:58:40;;;;;;;4.70;3.03;;;23.40;99.90;;;;;;5047489;28;20303;-55
2023/08/13 09:01:05;;;;;;;3.93;2.40;;;23.50;99.90;;;;;;5036310;28;20199;-54
2023/08/13 09:03:31;;;;;;;4.77;2.57;;;23.40;99.90;;;;;;5047841;28;20291;-55
2023/08/13 09:05:56;;;;;;;4.30;2.13;;;23.40;99.90;;;;;;5031029;28;20749;-55
2023/08/13 09:08:22;;;;;;;4.90;2.30;;;23.40;99.90;;;;;;5024676;28;20241;-55
2023/08/13 09:10:47;;;;;;;3.85;2.10;;;23.40;99.90;;;;;;5048870;28;20194;-57
2023/08/13 09:13:13;;;;;;;3.83;2.42;;;23.40;99.90;;;;;;5052690;28;20950;-56
2023/08/13 09:15:48;;;;;;;3.90;2.03;;;23.30;99.90;;;;;;5046813;28;20224;-56
2023/08/13 09:18:14;;;;;;;2.78;2.45;;;23.40;99.90;;;;;;5041602;28;20210;-55
2023/08/13 09:20:48;;;;;;;5.82;2.25;;;23.50;99.90;;;;;;5053011;28;20202;-56
2023/08/13 09:23:21;;;;;;;6.63;2.33;;;23.60;99.90;;;;;;5026789;28;20215;-53
2023/08/13 09:25:52;;;;;;;4.43;1.88;;;23.50;99.90;;;;;;5034661;28;20389;-57
2023/08/13 09:28:17;;;;;;;4.57;2.40;;;23.40;99.90;;;;;;5023656;28;20656;-64
2023/08/13 09:30:43;;;;;;;3.55;2.10;;;23.50;99.90;;;;;;5045909;28;20251;-56
2023/08/13 09:33:09;;;;;;;4.00;1.97;;;23.70;99.90;;;;;;5054526;28;20243;-59
2023/08/13 09:35:35;;;;;;;5.90;2.45;;;23.70;99.90;;;;;;5059861;28;20202;-58
2023/08/13 09:38:01;;;;;;;2.70;2.13;;;23.70;99.90;;;;;;5057187;28;20719;-55
2023/08/13 09:40:26;;;;;;;7.72;2.30;;;23.80;99.90;;;;;;5046860;28;20282;-54
2023/08/13 09:42:55;;;;;;;4.33;2.30;;;24.00;99.90;;;;;;5047041;28;20218;-55
2023/08/13 09:45:25;;;;;;;3.50;2.33;;;23.90;99.90;;;;;;5055064;28;20214;-64
2023/08/13 09:47:55;;;;;;;3.55;2.03;;;24.00;99.90;;;;;;5054636;28;20605;-62
2023/08/13 09:50:21;;;;;;;6.97;2.05;;;24.00;99.90;;;;;;5057694;28;20222;-62
2023/08/13 09:52:47;;;;;;;4.13;2.23;;;23.90;99.90;;;;;;5058371;28;20198;-63
2023/08/13 09:55:21;;;;;;;2.78;2.25;;;23.80;99.90;;;;;;5033328;28;20194;-61
2023/08/13 09:57:49;;;;;;;4.77;2.00;;;24.00;98.10;;;;;;5052853;28;20241;-62
2023/08/13 10:00:15;;;;;;;4.13;2.23;;;24.10;96.20;;;;;;5025520;28;20204;-61
2023/08/13 10:02:41;;;;;;;3.05;1.90;;;23.90;95.90;;;;;;5030042;28;20202;-61
2023/08/13 10:05:07;;;;;;;3.37;1.90;;;23.70;96.90;;;;;;5058666;28;20186;-61
2023/08/13 10:07:34;;;;;;;4.90;2.00;;;23.80;95.40;;;;;;5058453;28;20201;-63
2023/08/13 10:10:00;;;;;;;4.90;1.87;;;23.80;97.60;;;;;;5027504;28;20194;-65
2023/08/13 10:12:26;;;;;;;4.07;2.13;;;24.00;94.60;;;;;;5057165;28;20190;-58
2023/08/13 10:14:51;;;;;;;5.30;2.20;;;24.30;93.60;;;;;;5049003;28;20836;-59
2023/08/13 10:17:18;;;;;;;2.83;1.93;;;24.30;96.50;;;;;;5058022;28;20209;-59
2023/08/13 10:19:51;;;;;;;3.75;1.98;;;24.20;95.50;;;;;;5046680;28;20210;-57
2023/08/13 10:22:30;;;;;;;4.50;2.05;;;24.20;95.70;;;;;;5055676;28;20206;-59
2023/08/13 10:24:55;;;;;;;4.55;2.50;;;24.20;95.70;;;;;;5033009;28;20233;-57
2023/08/13 10:27:22;;;;;;;2.40;1.67;;;24.50;95.50;;;;;;5059548;28;20191;-57
2023/08/13 10:29:48;;;;;;;4.60;1.95;;;24.60;95.20;;;;;;5031159;28;20229;-58
2023/08/13 10:32:17;;;;;;;3.17;1.65;;;24.70;94.90;;;;;;5025268;28;20361;-59
2023/08/13 10:34:50;;;;;;;5.68;2.10;;;24.60;96.60;;;;;;5026402;28;20209;-61
2023/08/13 10:37:18;;;;;;;4.75;1.95;;;24.70;94.60;;;;;;5058245;28;20193;-61
2023/08/13 10:39:57;;;;;;;4.55;2.17;;;24.90;95.20;;;;;;5058961;28;20213;-63
2023/08/13 10:42:29;;;;;;;3.30;1.73;;;24.80;96.10;;;;;;5052438;28;20219;-62
2023/08/13 10:45:09;;;;;;;3.10;1.77;;;24.90;93.40;;;;;;5058249;28;20188;-61
2023/08/13 10:47:58;;;;;;;2.95;2.13;;;25.00;92.90;;;;;;5056582;28;20196;-62
2023/08/13 10:50:30;;;;;;;3.40;2.55;;;24.70;94.20;;;;;;5033507;28;20186;-59
2023/08/13 10:53:10;;;;;;;2.80;1.75;;;24.60;95.20;;;;;;5032535;28;20193;-54
2023/08/13 10:55:41;;;;;;;3.40;1.98;;;24.50;95.00;;;;;;5058928;28;20720;-54
2023/08/13 10:58:20;;;;;;;3.63;1.95;;;25.10;94.80;;;;;;5052164;28;20221;-54
2023/08/13 11:00:46;;;;;;;2.45;2.00;;;25.40;94.70;;;;;;5048206;28;20198;-58
2023/08/13 11:03:23;;;;;;;5.57;2.25;;;25.30;94.90;;;;;;5049060;28;20662;-60
2023/08/13 11:05:51;;;;;;;5.38;2.47;;;25.50;93.00;;;;;;5023484;28;20204;-65
2023/08/13 11:08:21;;;;;;;3.03;2.50;;;25.70;91.90;;;;;;5049410;28;20283;-61
2023/08/13 11:10:48;;;;;;;2.53;2.33;;;25.80;92.00;;;;;;5050875;28;20346;-60
2023/08/13 11:13:15;;;;;;;3.00;1.98;;;26.00;91.00;;;;;;5053419;28;20212;-60
2023/08/13 11:15:47;;;;;;;2.60;2.10;;;26.10;89.80;;;;;;5052035;28;20242;-59
2023/08/13 11:18:13;;;;;;;2.92;2.08;;;26.30;88.80;;;;;;5053570;28;20271;-59
2023/08/13 11:20:39;;;;;;;4.28;2.10;;;26.10;88.40;;;;;;5057016;28;20995;-59
2023/08/13 11:23:05;;;;;;;4.00;2.22;;;25.90;90.60;;;;;;5041455;28;20343;-58
2023/08/13 11:25:30;;;;;;;2.47;1.95;;;26.10;90.10;;;;;;5041451;28;20238;-58
2023/08/13 11:27:56;;;;;;;4.32;2.08;;;26.50;86.90;;;;;;5042627;28;20202;-58
2023/08/13 11:30:22;;;;;;;3.25;2.20;;;26.70;85.70;;;;;;5042940;28;20557;-59
2023/08/13 11:32:47;;;;;;;4.57;2.20;;;26.90;86.70;;;;;;5043875;28;20623;-59
2023/08/13 11:35:13;;;;;;;2.97;1.95;;;26.70;85.20;;;;;;5044685;28;20223;-59
2023/08/13 11:37:39;;;;;;;4.38;2.13;;;27.20;87.50;;;;;;5054667;28;20206;-58
2023/08/13 11:40:07;;;;;;;4.57;1.77;;;27.70;80.90;;;;;;5047474;28;20181;-59
2023/08/13 11:42:33;;;;;;;4.65;2.22;;;27.70;81.00;;;;;;5025859;28;20229;-58
2023/08/13 11:44:58;;;;;;;4.90;2.28;;;27.70;78.80;;;;;;5044905;28;20193;-59
2023/08/13 11:47:25;;;;;;;4.32;2.38;;;27.10;80.70;;;;;;5050693;28;20208;-59
2023/08/13 11:49:51;;;;;;;4.43;2.42;;;27.20;81.20;;;;;;5053346;28;20250;-59
2023/08/13 11:52:20;;;;;;;4.60;2.00;;;27.50;81.10;;;;;;5046289;28;20197;-59
2023/08/13 11:54:45;;;;;;;3.00;2.03;;;27.30;81.20;;;;;;5053393;28;20221;-60
2023/08/13 11:57:11;;;;;;;5.25;2.13;;;27.10;85.00;;;;;;5052970;28;20271;-59
2023/08/13 11:59:37;;;;;;;3.30;2.08;;;27.70;82.20;;;;;;5055826;28;20354;-59
2023/08/13 12:02:02;;;;;;;3.05;2.00;;;27.90;80.00;;;;;;5053952;28;20274;-59
2023/08/13 12:04:32;;;;;;;2.67;2.17;;;27.90;81.00;;;;;;5025574;28;20210;-59
2023/08/13 12:06:57;;;;;;;5.10;2.25;;;27.70;78.70;;;;;;5055856;28;20198;-59
2023/08/13 12:09:23;;;;;;;3.00;1.90;;;28.00;77.00;;;;;;5053608;28;20206;-58
2023/08/13 12:11:48;;;;;;;1.88;1.40;;;28.70;73.10;;;;;;5043540;28;20198;-57
2023/08/13 12:14:14;;;;;;;3.78;1.83;;;28.40;75.10;;;;;;5043304;28;20214;-59
2023/08/13 12:16:40;;;;;;;2.63;2.17;;;28.00;76.60;;;;;;5058250;28;20325;-60
2023/08/13 12:19:06;;;;;;;2.50;2.30;;;28.90;72.20;;;;;;5042487;28;20210;-58
2023/08/13 12:21:33;;;;;;;3.08;1.92;;;29.50;71.00;;;;;;5043639;28;20195;-58
2023/08/13 12:23:59;;;;;;;3.72;2.30;;;28.90;72.70;;;;;;5053539;28;20209;-58
2023/08/13 12:26:25;;;;;;;4.05;2.25;;;28.60;74.70;;;;;;5056780;28;20245;-58
2023/08/13 12:28:50;;;;;;;2.70;1.65;;;28.70;72.40;;;;;;5061155;28;20923;-59
2023/08/13 12:31:19;;;;;;;3.00;1.70;;;28.30;74.40;;;;;;5060273;28;20558;-59
2023/08/13 12:33:45;;;;;;;2.47;2.10;;;28.00;73.00;;;;;;5042445;28;20187;-59
2023/08/13 12:36:11;;;;;;;2.38;1.80;;;28.60;72.80;;;;;;5043181;28;20186;-59
2023/08/13 12:38:39;;;;;;;3.80;1.73;;;29.50;71.60;;;;;;5052469;28;20723;-59
2023/08/13 12:41:08;;;;;;;2.72;1.95;;;29.40;69.00;;;;;;5042722;28;20194;-59
2023/08/13 12:43:36;;;;;;;3.42;2.42;;;30.00;66.60;;;;;;5051573;28;20301;-57